sensor_id;sensor_type;location;lat;lon;timestamp;pressure;altitude;pressure_sealevel;temperature;humidity
64610;BME280;51019;46.090;6.350;2023-09-18T00:02:21;96152.88;;;18.36;100.00
64610;BME280;51019;46.090;6.350;2023-09-18T00:04:49;96153.09;;;18.34;100.00
64610;BME280;51019;46.090;6.350;2023-09-18T00:07:16;96150.06;;;18.50;100.00
64610;BME280;51019;46.090;6.350;2023-09-18T00:09:43;96155.78;;;18.54;100.00
64610;BME280;51019;46.090;6.350;2023-09-18T00:12:10;96159.84;;;18.37;100.00
64610;BME280;51019;46.090;6.350;2023-09-18T00:14:37;96162.38;;;18.65;100.00
64610;BME280;51019;46.090;6.350;2023-09-18T00:17:04;96168.66;;;18.57;100.00
64610;BME280;51019;46.090;6.350;2023-09-18T00:19:31;96166.78;;;18.44;100.00
64610;BME280;51019;46.090;6.350;2023-09-18T00:22:01;96178.34;;;18.17;100.00
64610;BME280;51019;46.090;6.350;2023-09-18T00:24:27;96178.16;;;18.25;100.00
64610;BME280;51019;46.090;6.350;2023-09-18T00:26:55;96185.75;;;18.35;100.00
64610;BME280;51019;46.090;6.350;2023-09-18T00:29:22;96202.31;;;18.50;100.00
64610;BME280;51019;46.090;6.350;2023-09-18T00:31:49;96214.47;;;18.79;100.00
64610;BME280;51019;46.090;6.350;2023-09-18T00:34:16;96211.56;;;18.61;100.00
64610;BME280;51019;46.090;6.350;2023-09-18T00:36:43;96215.25;;;18.60;100.00
64610;BME280;51019;46.090;6.350;2023-09-18T00:39:12;96226.09;;;18.71;100.00
64610;BME280;51019;46.090;6.350;2023-09-18T00:41:39;96240.16;;;18.65;100.00
64610;BME280;51019;46.090;6.350;2023-09-18T00:44:06;96248.94;;;18.59;100.00
64610;BME280;51019;46.090;6.350;2023-09-18T00:46:33;96241.69;;;18.46;100.00
64610;BME280;51019;46.090;6.350;2023-09-18T00:49:02;96242.34;;;18.55;100.00
64610;BME280;51019;46.090;6.350;2023-09-18T00:51:29;96250.94;;;18.57;100.00
64610;BME280;51019;46.090;6.350;2023-09-18T00:53:56;96246.63;;;18.56;100.00
64610;BME280;51019;46.090;6.350;2023-09-18T00:56:24;96259.16;;;18.62;100.00
64610;BME280;51019;46.090;6.350;2023-09-18T00:58:52;96265.94;;;18.78;100.00
64610;BME280;51019;46.090;6.350;2023-09-18T01:01:19;96274.72;;;18.78;100.00
64610;BME280;51019;46.090;6.350;2023-09-18T01:03:49;96277.78;;;18.82;100.00
64610;BME280;51019;46.090;6.350;2023-09-18T01:06:18;96265.53;;;18.81;100.00
64610;BME280;51019;46.090;6.350;2023-09-18T01:08:47;96260.81;;;18.76;100.00
64610;BME280;51019;46.090;6.350;2023-09-18T01:11:26;96275.66;;;18.64;100.00
64610;BME280;51019;46.090;6.350;2023-09-18T01:14:03;96255.97;;;18.93;100.00
64610;BME280;51019;46.090;6.350;2023-09-18T01:16:44;96222.84;;;18.89;100.00
64610;BME280;51019;46.090;6.350;2023-09-18T01:19:16;96234.09;;;18.98;100.00
64610;BME280;51019;46.090;6.350;2023-09-18T01:21:45;96236.78;;;19.04;100.00
64610;BME280;51019;46.090;6.350;2023-09-18T01:24:13;96224.72;;;19.02;100.00
64610;BME280;51019;46.090;6.350;2023-09-18T01:26:40;96231.06;;;19.14;100.00
64610;BME280;51019;46.090;6.350;2023-09-18T01:29:07;96222.00;;;18.75;100.00
64610;BME280;51019;46.090;6.350;2023-09-18T01:31:34;96230.16;;;18.67;100.00
64610;BME280;51019;46.090;6.350;2023-09-18T01:34:01;96223.69;;;18.90;100.00
64610;BME280;51019;46.090;6.350;2023-09-18T01:36:29;96204.31;;;18.96;100.00
64610;BME280;51019;46.090;6.350;2023-09-18T01:38:56;96194.28;;;19.04;100.00
64610;BME280;51019;46.090;6.350;2023-09-18T01:41:25;96161.59;;;18.91;100.00
64610;BME280;51019;46.090;6.350;2023-09-18T01:43:52;96182.84;;;19.04;100.00
64610;BME280;51019;46.090;6.350;2023-09-18T01:46:21;96184.47;;;19.11;100.00
64610;BME280;51019;46.090;6.350;2023-09-18T01:48:48;96194.69;;;19.08;100.00
64610;BME280;51019;46.090;6.350;2023-09-18T01:51:15;96187.13;;;18.92;100.00
64610;BME280;51019;46.090;6.350;2023-09-18T01:53:42;96201.59;;;18.76;100.00
64610;BME280;51019;46.090;6.350;2023-09-18T01:56:09;96198.16;;;18.82;100.00
64610;BME280;51019;46.090;6.350;2023-09-18T01:58:38;96189.16;;;18.96;100.00
64610;BME280;51019;46.090;6.350;2023-09-18T02:01:05;96193.66;;;18.89;100.00
64610;BME280;51019;46.090;6.350;2023-09-18T02:03:31;96189.97;;;18.97;100.00
64610;BME280;51019;46.090;6.350;2023-09-18T02:05:58;96198.72;;;18.71;100.00
64610;BME280;51019;46.090;6.350;2023-09-18T02:08:25;96199.56;;;18.78;100.00
64610;BME280;51019;46.090;6.350;2023-09-18T02:10:52;96187.31;;;18.97;100.00
64610;BME280;51019;46.090;6.350;2023-09-18T02:13:19;96204.88;;;18.91;100.00
64610;BME280;51019;46.090;6.350;2023-09-18T02:15:48;96185.69;;;18.82;100.00
64610;BME280;51019;46.090;6.350;2023-09-18T02:18:15;96215.31;;;18.99;100.00
64610;BME280;51019;46.090;6.350;2023-09-18T02:20:43;96204.66;;;18.86;100.00
64610;BME280;51019;46.090;6.350;2023-09-18T02:23:13;96191.81;;;18.83;100.00
64610;BME280;51019;46.090;6.350;2023-09-18T02:25:39;96190.38;;;18.80;100.00
64610;BME280;51019;46.090;6.350;2023-09-18T02:28:06;96190.97;;;18.69;100.00
64610;BME280;51019;46.090;6.350;2023-09-18T02:30:33;96191.81;;;18.83;100.00
64610;BME280;51019;46.090;6.350;2023-09-18T02:33:02;96192.00;;;18.81;100.00
64610;BME280;51019;46.090;6.350;2023-09-18T02:35:29;96173.00;;;18.71;100.00
64610;BME280;51019;46.090;6.350;2023-09-18T02:37:56;96181.16;;;18.70;100.00
64610;BME280;51019;46.090;6.350;2023-09-18T02:40:25;96178.13;;;18.86;100.00
64610;BME280;51019;46.090;6.350;2023-09-18T02:42:52;96171.56;;;18.75;100.00
64610;BME280;51019;46.090;6.350;2023-09-18T02:45:19;96180.31;;;18.63;100.00
64610;BME280;51019;46.090;6.350;2023-09-18T02:47:45;96182.41;;;18.80;100.00
64610;BME280;51019;46.090;6.350;2023-09-18T02:50:14;96169.97;;;18.81;100.00
64610;BME280;51019;46.090;6.350;2023-09-18T02:52:41;96185.69;;;18.89;100.00
64610;BME280;51019;46.090;6.350;2023-09-18T02:55:08;96179.13;;;18.85;100.00
64610;BME280;51019;46.090;6.350;2023-09-18T02:57:36;96182.44;;;18.94;100.00
64610;BME280;51019;46.090;6.350;2023-09-18T03:00:03;96163.19;;;18.85;100.00
64610;BME280;51019;46.090;6.350;2023-09-18T03:02:31;96169.34;;;18.85;100.00
64610;BME280;51019;46.090;6.350;2023-09-18T03:04:58;96164.03;;;18.85;100.00
64610;BME280;51019;46.090;6.350;2023-09-18T03:07:26;96156.69;;;18.94;100.00
64610;BME280;51019;46.090;6.350;2023-09-18T03:09:55;96172.84;;;18.93;100.00
64610;BME280;51019;46.090;6.350;2023-09-18T03:12:22;96176.50;;;18.98;100.00
64610;BME280;51019;46.090;6.350;2023-09-18T03:14:48;96175.06;;;18.89;100.00
64610;BME280;51019;46.090;6.350;2023-09-18T03:17:15;96170.78;;;18.81;100.00
64610;BME280;51019;46.090;6.350;2023-09-18T03:19:42;96166.06;;;18.77;100.00
64610;BME280;51019;46.090;6.350;2023-09-18T03:22:09;96161.38;;;18.79;100.00
64610;BME280;51019;46.090;6.350;2023-09-18T03:24:38;96164.22;;;18.77;100.00
64610;BME280;51019;46.090;6.350;2023-09-18T03:27:05;96163.63;;;18.82;100.00
64610;BME280;51019;46.090;6.350;2023-09-18T03:29:31;96142.59;;;18.80;100.00
64610;BME280;51019;46.090;6.350;2023-09-18T03:31:58;96155.03;;;18.86;100.00
64610;BME280;51019;46.090;6.350;2023-09-18T03:34:25;96148.31;;;18.84;100.00
64610;BME280;51019;46.090;6.350;2023-09-18T03:36:53;96148.09;;;18.85;100.00
64610;BME280;51019;46.090;6.350;2023-09-18T03:39:20;96153.84;;;18.96;100.00
64610;BME280;51019;46.090;6.350;2023-09-18T03:41:48;96163.19;;;18.85;100.00
64610;BME280;51019;46.090;6.350;2023-09-18T03:44:16;96157.91;;;18.85;100.00
64610;BME280;51019;46.090;6.350;2023-09-18T03:46:44;96154.03;;;18.81;100.00
64610;BME280;51019;46.090;6.350;2023-09-18T03:49:10;96170.13;;;18.66;100.00
64610;BME280;51019;46.090;6.350;2023-09-18T03:51:37;96159.94;;;18.76;100.00
64610;BME280;51019;46.090;6.350;2023-09-18T03:54:04;96162.38;;;18.78;100.00
64610;BME280;51019;46.090;6.350;2023-09-18T03:56:31;96170.53;;;18.63;100.00
64610;BME280;51019;46.090;6.350;2023-09-18T03:58:59;96178.31;;;18.78;100.00
64610;BME280;51019;46.090;6.350;2023-09-18T04:01:26;96165.69;;;18.93;100.00
64610;BME280;51019;46.090;6.350;2023-09-18T04:03:55;96141.78;;;18.73;100.00
64610;BME280;51019;46.090;6.350;2023-09-18T04:06:23;96154.88;;;18.95;100.00
64610;BME280;51019;46.090;6.350;2023-09-18T04:08:50;96163.41;;;18.97;100.00
64610;BME280;51019;46.090;6.350;2023-09-18T04:11:19;96158.31;;;18.89;100.00
64610;BME280;51019;46.090;6.350;2023-09-18T04:13:51;96161.16;;;18.74;100.00
64610;BME280;51019;46.090;6.350;2023-09-18T04:16:20;96158.72;;;18.92;100.00
64610;BME280;51019;46.090;6.350;2023-09-18T04:18:47;96145.44;;;18.85;100.00
64610;BME280;51019;46.090;6.350;2023-09-18T04:21:14;96159.75;;;18.71;100.00
64610;BME280;51019;46.090;6.350;2023-09-18T04:23:41;96176.25;;;18.67;100.00
64610;BME280;51019;46.090;6.350;2023-09-18T04:26:08;96160.53;;;18.65;100.00
64610;BME280;51019;46.090;6.350;2023-09-18T04:28:38;96175.69;;;18.84;100.00
64610;BME280;51019;46.090;6.350;2023-09-18T04:31:05;96151.56;;;18.73;100.00
64610;BME280;51019;46.090;6.350;2023-09-18T04:33:33;96160.97;;;18.89;100.00
64610;BME280;51019;46.090;6.350;2023-09-18T04:36:00;96152.00;;;18.90;100.00
64610;BME280;51019;46.090;6.350;2023-09-18T04:38:27;96153.00;;;19.02;100.00
64610;BME280;51019;46.090;6.350;2023-09-18T04:40:57;96148.31;;;19.04;100.00
64610;BME280;51019;46.090;6.350;2023-09-18T04:43:24;96147.31;;;19.18;100.00
64610;BME280;51019;46.090;6.350;2023-09-18T04:45:51;96133.19;;;19.24;100.00
64610;BME280;51019;46.090;6.350;2023-09-18T04:48:18;96116.84;;;19.27;100.00
64610;BME280;51019;46.090;6.350;2023-09-18T04:50:46;96128.66;;;19.57;100.00
64610;BME280;51019;46.090;6.350;2023-09-18T04:53:13;96116.00;;;19.60;100.00
64610;BME280;51019;46.090;6.350;2023-09-18T04:55:40;96101.22;;;19.70;100.00
64610;BME280;51019;46.090;6.350;2023-09-18T04:58:07;96083.44;;;19.64;100.00
64610;BME280;51019;46.090;6.350;2023-09-18T05:00:34;96098.53;;;19.77;100.00
64610;BME280;51019;46.090;6.350;2023-09-18T05:03:02;96094.84;;;19.78;100.00
64610;BME280;51019;46.090;6.350;2023-09-18T05:05:29;96086.06;;;19.84;100.00
64610;BME280;51019;46.090;6.350;2023-09-18T05:07:57;96133.72;;;19.79;100.00
64610;BME280;51019;46.090;6.350;2023-09-18T05:10:24;96246.84;;;19.75;100.00
64610;BME280;51019;46.090;6.350;2023-09-18T05:12:51;96314.22;;;19.14;100.00
64610;BME280;51019;46.090;6.350;2023-09-18T05:15:23;96422.31;;;19.14;100.00
64610;BME280;51019;46.090;6.350;2023-09-18T05:17:52;96356.13;;;18.02;100.00
64610;BME280;51019;46.090;6.350;2023-09-18T05:20:22;96333.19;;;17.88;100.00
64610;BME280;51019;46.090;6.350;2023-09-18T05:22:50;96286.94;;;17.97;100.00
64610;BME280;51019;46.090;6.350;2023-09-18T05:25:20;96273.56;;;17.56;100.00
64610;BME280;51019;46.090;6.350;2023-09-18T05:27:48;96316.09;;;17.27;100.00
64610;BME280;51019;46.090;6.350;2023-09-18T05:30:23;96296.84;;;17.61;100.00
64610;BME280;51019;46.090;6.350;2023-09-18T05:32:50;96283.63;;;17.89;100.00
64610;BME280;51019;46.090;6.350;2023-09-18T05:35:18;96318.34;;;17.72;100.00
64610;BME280;51019;46.090;6.350;2023-09-18T05:37:44;96327.59;;;17.76;100.00
64610;BME280;51019;46.090;6.350;2023-09-18T05:40:12;96317.59;;;18.06;100.00
64610;BME280;51019;46.090;6.350;2023-09-18T05:42:42;96324.31;;;18.02;100.00
64610;BME280;51019;46.090;6.350;2023-09-18T05:45:10;96326.72;;;17.97;100.00
64610;BME280;51019;46.090;6.350;2023-09-18T05:47:37;96303.09;;;17.74;100.00
64610;BME280;51019;46.090;6.350;2023-09-18T05:50:06;96302.91;;;17.76;100.00
64610;BME280;51019;46.090;6.350;2023-09-18T05:52:33;96281.50;;;17.77;100.00
64610;BME280;51019;46.090;6.350;2023-09-18T05:55:00;96283.81;;;17.87;100.00
64610;BME280;51019;46.090;6.350;2023-09-18T05:57:27;96292.88;;;17.50;100.00
64610;BME280;51019;46.090;6.350;2023-09-18T05:59:55;96267.84;;;18.08;100.00
64610;BME280;51019;46.090;6.350;2023-09-18T06:02:22;96295.97;;;18.37;100.00
64610;BME280;51019;46.090;6.350;2023-09-18T06:04:54;96300.28;;;18.10;100.00
64610;BME280;51019;46.090;6.350;2023-09-18T06:07:21;96332.44;;;17.52;100.00
64610;BME280;51019;46.090;6.350;2023-09-18T06:09:48;96304.91;;;17.74;100.00
64610;BME280;51019;46.090;6.350;2023-09-18T06:12:15;96314.50;;;17.75;100.00
64610;BME280;51019;46.090;6.350;2023-09-18T06:14:41;96307.28;;;17.90;100.00
64610;BME280;51019;46.090;6.350;2023-09-18T06:17:10;96302.91;;;18.04;100.00
64610;BME280;51019;46.090;6.350;2023-09-18T06:19:37;96319.00;;;17.32;100.00
64610;BME280;51019;46.090;6.350;2023-09-18T06:22:04;96318.19;;;17.53;100.00
64610;BME280;51019;46.090;6.350;2023-09-18T06:24:33;96348.31;;;17.30;100.00
64610;BME280;51019;46.090;6.350;2023-09-18T06:27:00;96325.25;;;17.67;100.00
64610;BME280;51019;46.090;6.350;2023-09-18T06:29:27;96336.72;;;17.53;100.00
64610;BME280;51019;46.090;6.350;2023-09-18T06:31:53;96354.13;;;17.62;100.00
64610;BME280;51019;46.090;6.350;2023-09-18T06:34:23;96327.38;;;17.78;100.00
64610;BME280;51019;46.090;6.350;2023-09-18T06:36:50;96311.63;;;17.70;100.00
64610;BME280;51019;46.090;6.350;2023-09-18T06:39:17;96347.25;;;17.89;100.00
64610;BME280;51019;46.090;6.350;2023-09-18T06:41:45;96344.56;;;17.82;100.00
64610;BME280;51019;46.090;6.350;2023-09-18T06:44:12;96354.72;;;17.36;100.00
64610;BME280;51019;46.090;6.350;2023-09-18T06:46:39;96319.59;;;17.49;100.00
64610;BME280;51019;46.090;6.350;2023-09-18T06:49:06;96343.03;;;17.30;100.00
64610;BME280;51019;46.090;6.350;2023-09-18T06:51:35;96338.72;;;17.51;100.00
64610;BME280;51019;46.090;6.350;2023-09-18T06:54:04;96361.84;;;17.35;100.00
64610;BME280;51019;46.090;6.350;2023-09-18T06:56:31;96357.69;;;17.48;100.00
64610;BME280;51019;46.090;6.350;2023-09-18T06:58:58;96370.50;;;17.65;100.00
64610;BME280;51019;46.090;6.350;2023-09-18T07:01:25;96397.44;;;17.69;100.00
64610;BME280;51019;46.090;6.350;2023-09-18T07:03:53;96383.28;;;18.04;100.00
64610;BME280;51019;46.090;6.350;2023-09-18T07:06:21;96374.91;;;18.07;100.00
64610;BME280;51019;46.090;6.350;2023-09-18T07:08:50;96388.50;;;17.70;100.00
64610;BME280;51019;46.090;6.350;2023-09-18T07:11:18;96397.28;;;17.56;100.00
64610;BME280;51019;46.090;6.350;2023-09-18T07:13:45;96369.16;;;17.76;100.00
64610;BME280;51019;46.090;6.350;2023-09-18T07:16:12;96367.09;;;17.71;100.00
64610;BME280;51019;46.090;6.350;2023-09-18T07:18:39;96382.69;;;17.81;100.00
64610;BME280;51019;46.090;6.350;2023-09-18T07:21:07;96393.19;;;17.96;100.00
64610;BME280;51019;46.090;6.350;2023-09-18T07:23:34;96430.13;;;17.76;100.00
64610;BME280;51019;46.090;6.350;2023-09-18T07:26:05;96436.03;;;17.21;100.00
64610;BME280;51019;46.090;6.350;2023-09-18T07:28:32;96431.97;;;17.39;100.00
64610;BME280;51019;46.090;6.350;2023-09-18T07:31:05;96434.56;;;17.69;100.00
64610;BME280;51019;46.090;6.350;2023-09-18T07:33:31;96436.72;;;17.80;100.00
64610;BME280;51019;46.090;6.350;2023-09-18T07:35:58;96440.03;;;18.10;100.00
64610;BME280;51019;46.090;6.350;2023-09-18T07:38:25;96428.34;;;18.04;100.00
64610;BME280;51019;46.090;6.350;2023-09-18T07:40:52;96445.59;;;17.94;100.00
64610;BME280;51019;46.090;6.350;2023-09-18T07:43:20;96454.63;;;17.99;100.00
64610;BME280;51019;46.090;6.350;2023-09-18T07:45:49;96445.47;;;18.30;100.00
64610;BME280;51019;46.090;6.350;2023-09-18T07:48:16;96444.13;;;18.12;100.00
64610;BME280;51019;46.090;6.350;2023-09-18T07:50:45;96438.19;;;18.10;100.00
64610;BME280;51019;46.090;6.350;2023-09-18T07:53:14;96439.16;;;18.03;100.00
64610;BME280;51019;46.090;6.350;2023-09-18T07:55:41;96466.91;;;17.64;100.00
64610;BME280;51019;46.090;6.350;2023-09-18T07:58:08;96463.94;;;17.74;100.00
64610;BME280;51019;46.090;6.350;2023-09-18T08:00:38;96463.38;;;18.00;100.00
64610;BME280;51019;46.090;6.350;2023-09-18T08:03:05;96442.97;;;18.22;100.00
64610;BME280;51019;46.090;6.350;2023-09-18T08:05:32;96467.25;;;17.97;100.00
64610;BME280;51019;46.090;6.350;2023-09-18T08:07:59;96486.56;;;17.91;100.00
64610;BME280;51019;46.090;6.350;2023-09-18T08:10:26;96469.19;;;17.89;100.00
64610;BME280;51019;46.090;6.350;2023-09-18T08:12:53;96453.34;;;17.74;100.00
64610;BME280;51019;46.090;6.350;2023-09-18T08:15:21;96467.25;;;17.61;100.00
64610;BME280;51019;46.090;6.350;2023-09-18T08:17:50;96485.75;;;17.55;100.00
64610;BME280;51019;46.090;6.350;2023-09-18T08:20:18;96482.88;;;17.20;100.00
64610;BME280;51019;46.090;6.350;2023-09-18T08:22:46;96480.34;;;17.12;100.00
64610;BME280;51019;46.090;6.350;2023-09-18T08:25:15;96456.16;;;17.15;100.00
64610;BME280;51019;46.090;6.350;2023-09-18T08:27:42;96437.84;;;17.20;100.00
64610;BME280;51019;46.090;6.350;2023-09-18T08:30:10;96434.88;;;17.45;100.00
64610;BME280;51019;46.090;6.350;2023-09-18T08:32:37;96439.09;;;17.75;100.00
64610;BME280;51019;46.090;6.350;2023-09-18T08:35:08;96430.44;;;17.88;100.00
64610;BME280;51019;46.090;6.350;2023-09-18T08:37:35;96416.81;;;17.91;100.00
64610;BME280;51019;46.090;6.350;2023-09-18T08:40:02;96432.41;;;17.79;100.00
64610;BME280;51019;46.090;6.350;2023-09-18T08:42:36;96441.88;;;17.52;100.00
64610;BME280;51019;46.090;6.350;2023-09-18T08:45:08;96449.19;;;17.65;100.00
64610;BME280;51019;46.090;6.350;2023-09-18T08:47:37;96462.78;;;17.62;100.00
64610;BME280;51019;46.090;6.350;2023-09-18T08:50:08;96452.06;;;17.49;100.00
64610;BME280;51019;46.090;6.350;2023-09-18T08:52:35;96448.81;;;17.68;100.00
64610;BME280;51019;46.090;6.350;2023-09-18T08:55:03;96447.13;;;17.46;100.00
64610;BME280;51019;46.090;6.350;2023-09-18T08:57:31;96432.88;;;17.47;100.00
64610;BME280;51019;46.090;6.350;2023-09-18T08:59:58;96442.25;;;17.64;100.00
64610;BME280;51019;46.090;6.350;2023-09-18T09:02:31;96438.16;;;17.47;100.00
64610;BME280;51019;46.090;6.350;2023-09-18T09:04:59;96412.34;;;17.34;100.00
64610;BME280;51019;46.090;6.350;2023-09-18T09:07:28;96421.63;;;17.45;100.00
64610;BME280;51019;46.090;6.350;2023-09-18T09:09:56;96425.94;;;17.46;100.00
64610;BME280;51019;46.090;6.350;2023-09-18T09:12:54;96451.03;;;17.50;100.00
64610;BME280;51019;46.090;6.350;2023-09-18T09:15:22;96441.50;;;17.70;100.00
64610;BME280;51019;46.090;6.350;2023-09-18T09:17:52;96420.81;;;17.44;100.00
64610;BME280;51019;46.090;6.350;2023-09-18T09:20:19;96405.97;;;17.28;100.00
64610;BME280;51019;46.090;6.350;2023-09-18T09:22:48;96404.47;;;17.40;100.00
64610;BME280;51019;46.090;6.350;2023-09-18T09:25:23;96400.31;;;17.17;100.00
64610;BME280;51019;46.090;6.350;2023-09-18T09:27:52;96409.88;;;17.32;100.00
64610;BME280;51019;46.090;6.350;2023-09-18T09:30:20;96414.47;;;17.24;100.00
64610;BME280;51019;46.090;6.350;2023-09-18T09:32:48;96418.94;;;17.38;100.00
64610;BME280;51019;46.090;6.350;2023-09-18T09:35:21;96402.56;;;17.34;100.00
64610;BME280;51019;46.090;6.350;2023-09-18T09:37:51;96394.31;;;17.44;100.00
64610;BME280;51019;46.090;6.350;2023-09-18T09:40:20;96382.25;;;17.41;100.00
64610;BME280;51019;46.090;6.350;2023-09-18T09:42:47;96377.47;;;17.30;100.00
64610;BME280;51019;46.090;6.350;2023-09-18T09:45:15;96375.00;;;17.50;100.00
64610;BME280;51019;46.090;6.350;2023-09-18T09:47:42;96375.22;;;17.49;100.00
64610;BME280;51019;46.090;6.350;2023-09-18T09:50:11;96376.91;;;17.56;100.00
64610;BME280;51019;46.090;6.350;2023-09-18T09:52:43;96397.28;;;17.70;100.00
64610;BME280;51019;46.090;6.350;2023-09-18T09:55:22;96415.34;;;17.88;100.00
64610;BME280;51019;46.090;6.350;2023-09-18T09:57:52;96424.59;;;17.71;100.00
64610;BME280;51019;46.090;6.350;2023-09-18T10:00:23;96407.28;;;17.75;100.00
64610;BME280;51019;46.090;6.350;2023-09-18T10:03:03;96446.34;;;17.88;100.00
64610;BME280;51019;46.090;6.350;2023-09-18T10:05:32;96434.06;;;17.80;100.00
64610;BME280;51019;46.090;6.350;2023-09-18T10:08:00;96440.91;;;17.74;100.00
64610;BME280;51019;46.090;6.350;2023-09-18T10:10:32;96465.97;;;17.72;100.00
64610;BME280;51019;46.090;6.350;2023-09-18T10:13:04;96466.69;;;17.81;100.00
64610;BME280;51019;46.090;6.350;2023-09-18T10:15:37;96448.00;;;17.53;100.00
64610;BME280;51019;46.090;6.350;2023-09-18T10:18:07;96431.63;;;17.85;100.00
64610;BME280;51019;46.090;6.350;2023-09-18T10:20:40;96437.13;;;17.84;100.00
64610;BME280;51019;46.090;6.350;2023-09-18T10:23:18;96442.50;;;17.69;100.00
64610;BME280;51019;46.090;6.350;2023-09-18T10:25:54;96479.84;;;17.95;100.00
64610;BME280;51019;46.090;6.350;2023-09-18T10:28:23;96501.97;;;18.02;100.00
64610;BME280;51019;46.090;6.350;2023-09-18T10:30:57;96482.81;;;17.86;100.00
64610;BME280;51019;46.090;6.350;2023-09-18T10:33:25;96472.69;;;17.89;100.00
64610;BME280;51019;46.090;6.350;2023-09-18T10:35:53;96483.09;;;17.91;100.00
64610;BME280;51019;46.090;6.350;2023-09-18T10:38:21;96470.78;;;18.04;100.00
64610;BME280;51019;46.090;6.350;2023-09-18T10:40:49;96462.56;;;17.99;100.00
64610;BME280;51019;46.090;6.350;2023-09-18T10:43:18;96493.06;;;18.10;100.00
64610;BME280;51019;46.090;6.350;2023-09-18T10:45:45;96500.88;;;18.18;100.00
64610;BME280;51019;46.090;6.350;2023-09-18T10:48:13;96522.41;;;18.30;100.00
64610;BME280;51019;46.090;6.350;2023-09-18T10:50:42;96557.47;;;18.04;100.00
64610;BME280;51019;46.090;6.350;2023-09-18T10:53:11;96562.69;;;17.97;100.00
64610;BME280;51019;46.090;6.350;2023-09-18T10:55:38;96550.22;;;18.12;100.00
64610;BME280;51019;46.090;6.350;2023-09-18T10:58:06;96524.56;;;18.62;100.00
64610;BME280;51019;46.090;6.350;2023-09-18T11:00:34;96521.50;;;18.93;100.00
64610;BME280;51019;46.090;6.350;2023-09-18T11:03:13;96500.69;;;18.97;100.00
64610;BME280;51019;46.090;6.350;2023-09-18T11:05:40;96450.22;;;18.34;100.00
64610;BME280;51019;46.090;6.350;2023-09-18T11:08:29;96463.53;;;17.92;100.00
64610;BME280;51019;46.090;6.350;2023-09-18T11:11:01;96468.06;;;17.98;100.00
64610;BME280;51019;46.090;6.350;2023-09-18T11:13:36;96440.81;;;18.32;100.00
64610;BME280;51019;46.090;6.350;2023-09-18T11:16:17;96436.09;;;18.27;100.00
64610;BME280;51019;46.090;6.350;2023-09-18T11:18:47;96441.22;;;18.07;100.00
64610;BME280;51019;46.090;6.350;2023-09-18T11:21:15;96434.56;;;17.90;100.00
64610;BME280;51019;46.090;6.350;2023-09-18T11:23:44;96426.75;;;17.82;100.00
64610;BME280;51019;46.090;6.350;2023-09-18T11:26:10;96409.03;;;17.89;100.00
64610;BME280;51019;46.090;6.350;2023-09-18T11:28:39;96427.66;;;17.96;100.00
64610;BME280;51019;46.090;6.350;2023-09-18T11:31:08;96445.03;;;17.77;100.00
64610;BME280;51019;46.090;6.350;2023-09-18T11:33:40;96467.63;;;17.94;100.00
64610;BME280;51019;46.090;6.350;2023-09-18T11:36:11;96471.22;;;18.08;100.00
64610;BME280;51019;46.090;6.350;2023-09-18T11:38:52;96467.28;;;18.53;100.00
64610;BME280;51019;46.090;6.350;2023-09-18T11:41:22;96453.75;;;17.92;100.00
64610;BME280;51019;46.090;6.350;2023-09-18T11:43:50;96446.22;;;17.74;100.00
64610;BME280;51019;46.090;6.350;2023-09-18T11:46:20;96467.38;;;17.89;100.00
64610;BME280;51019;46.090;6.350;2023-09-18T11:48:49;96495.97;;;17.94;100.00
64610;BME280;51019;46.090;6.350;2023-09-18T11:51:23;96511.16;;;17.85;100.00
64610;BME280;51019;46.090;6.350;2023-09-18T11:53:53;96517.34;;;17.71;100.00
64610;BME280;51019;46.090;6.350;2023-09-18T11:56:21;96508.47;;;17.78;100.00
64610;BME280;51019;46.090;6.350;2023-09-18T11:58:49;96508.78;;;17.90;100.00
64610;BME280;51019;46.090;6.350;2023-09-18T12:01:17;96495.66;;;17.82;100.00
64610;BME280;51019;46.090;6.350;2023-09-18T12:03:45;96485.44;;;17.79;100.00
64610;BME280;51019;46.090;6.350;2023-09-18T12:06:16;96458.09;;;17.78;100.00
64610;BME280;51019;46.090;6.350;2023-09-18T12:08:43;96437.06;;;17.77;100.00
64610;BME280;51019;46.090;6.350;2023-09-18T12:11:12;96419.53;;;17.61;100.00
64610;BME280;51019;46.090;6.350;2023-09-18T12:13:42;96421.34;;;17.75;100.00
64610;BME280;51019;46.090;6.350;2023-09-18T12:16:09;96406.16;;;17.63;100.00
64610;BME280;51019;46.090;6.350;2023-09-18T12:18:36;96397.44;;;17.48;100.00
64610;BME280;51019;46.090;6.350;2023-09-18T12:21:06;96383.91;;;17.42;100.00
64610;BME280;51019;46.090;6.350;2023-09-18T12:23:42;96411.38;;;17.56;100.00
64610;BME280;51019;46.090;6.350;2023-09-18T12:26:12;96413.69;;;17.45;100.00
64610;BME280;51019;46.090;6.350;2023-09-18T12:28:39;96443.47;;;17.47;100.00
64610;BME280;51019;46.090;6.350;2023-09-18T12:31:10;96462.19;;;17.45;100.00
64610;BME280;51019;46.090;6.350;2023-09-18T12:33:38;96453.13;;;17.54;100.00
64610;BME280;51019;46.090;6.350;2023-09-18T12:36:06;96480.81;;;17.66;100.00
64610;BME280;51019;46.090;6.350;2023-09-18T12:38:35;96469.28;;;17.59;100.00
64610;BME280;51019;46.090;6.350;2023-09-18T12:41:05;96464.22;;;17.79;100.00
64610;BME280;51019;46.090;6.350;2023-09-18T12:43:36;96478.81;;;18.60;100.00
64610;BME280;51019;46.090;6.350;2023-09-18T12:46:05;96464.31;;;18.35;100.00
64610;BME280;51019;46.090;6.350;2023-09-18T12:48:32;96448.06;;;18.51;100.00
64610;BME280;51019;46.090;6.350;2023-09-18T12:51:03;96450.66;;;18.66;100.00
64610;BME280;51019;46.090;6.350;2023-09-18T12:53:31;96447.28;;;18.50;100.00
64610;BME280;51019;46.090;6.350;2023-09-18T12:56:08;96438.28;;;18.51;100.00
64610;BME280;51019;46.090;6.350;2023-09-18T12:58:35;96425.63;;;18.47;100.00